createdAt,value
2022-10-01T00:00:46.085Z,58.17
2022-10-01T00:01:46.052Z,58.33
2022-10-01T00:02:46.552Z,57.69
2022-10-01T00:03:45.986Z,58.17
2022-10-01T00:04:46.025Z,58.17
2022-10-01T00:05:45.989Z,57.69
2022-10-01T00:06:45.982Z,57.85
2022-10-01T00:07:47.738Z,57.85
2022-10-01T00:08:45.987Z,58.81
2022-10-01T00:09:45.989Z,58.01
2022-10-01T00:10:45.947Z,58.33
2022-10-01T00:11:45.959Z,58.01
2022-10-01T00:12:45.948Z,57.85
2022-10-01T00:13:45.940Z,57.85
2022-10-01T00:14:45.915Z,58.17
2022-10-01T00:15:45.938Z,57.69
2022-10-01T00:16:46.025Z,57.85
2022-10-01T00:17:45.912Z,58.33
2022-10-01T00:18:45.933Z,58.65
2022-10-01T00:19:45.891Z,58.17
2022-10-01T00:20:45.883Z,57.36
2022-10-01T00:21:45.912Z,57.52
2022-10-01T00:22:45.928Z,58.01
2022-10-01T00:23:45.870Z,57.69
2022-10-01T00:24:45.875Z,57.85
2022-10-01T00:25:45.887Z,58.01
2022-10-01T00:26:45.884Z,57.69
2022-10-01T00:27:45.903Z,58.01
2022-10-01T00:28:45.843Z,57.69
2022-10-01T00:29:45.851Z,57.85
2022-10-01T00:30:45.826Z,57.36
2022-10-01T00:31:45.848Z,58.17
2022-10-01T00:32:45.893Z,58.01
2022-10-01T00:33:45.799Z,58.01
2022-10-01T00:34:45.791Z,58.65
2022-10-01T00:35:45.833Z,57.69
2022-10-01T00:36:45.831Z,58.49
2022-10-01T00:37:45.789Z,57.52
2022-10-01T00:38:45.800Z,57.52
2022-10-01T00:39:45.778Z,57.85
2022-10-01T00:40:45.759Z,57.04
2022-10-01T00:41:45.755Z,57.69
2022-10-01T00:42:45.783Z,57.85
2022-10-01T00:43:45.785Z,57.69
2022-10-01T00:44:45.728Z,57.36
2022-10-01T00:45:45.755Z,57.04
2022-10-01T00:46:45.734Z,57.85
2022-10-01T00:47:45.719Z,57.36
2022-10-01T00:48:45.761Z,58.01
2022-10-01T00:49:45.704Z,57.85
2022-10-01T00:50:45.697Z,57.85
2022-10-01T00:51:45.729Z,55.59
2022-10-01T00:52:45.688Z,57.52
2022-10-01T00:53:45.765Z,57.20
2022-10-01T00:54:45.719Z,57.04
2022-10-01T00:55:45.673Z,58.01
2022-10-01T00:56:45.661Z,57.20
2022-10-01T00:57:45.663Z,57.04
2022-10-01T00:58:45.662Z,57.20
2022-10-01T00:59:45.659Z,56.88
2022-10-01T01:00:45.695Z,57.04
2022-10-01T01:01:45.675Z,57.52
2022-10-01T01:02:45.717Z,56.56
2022-10-01T01:03:45.659Z,57.36
2022-10-01T01:04:45.632Z,58.01
2022-10-01T01:05:45.639Z,57.52
2022-10-01T01:06:45.652Z,57.69
2022-10-01T01:07:45.598Z,57.36
2022-10-01T01:08:45.594Z,58.17
2022-10-01T01:09:45.657Z,57.69
2022-10-01T01:10:45.580Z,57.69
2022-10-01T01:11:45.584Z,57.36
2022-10-01T01:12:45.555Z,56.88
2022-10-01T01:13:45.555Z,57.36
2022-10-01T01:14:46.510Z,57.69
2022-10-01T01:15:45.617Z,57.69
2022-10-01T01:16:45.534Z,57.85
2022-10-01T01:17:45.523Z,58.01
2022-10-01T01:18:45.579Z,58.01
2022-10-01T01:19:45.535Z,57.52
2022-10-01T01:20:45.515Z,56.40
2022-10-01T01:21:45.516Z,56.88
2022-10-01T01:22:45.534Z,57.04
2022-10-01T01:23:45.486Z,57.36
2022-10-01T01:24:45.513Z,57.69
2022-10-01T01:25:45.531Z,57.20
2022-10-01T01:26:45.484Z,57.52
2022-10-01T01:27:45.499Z,57.36
2022-10-01T01:28:45.567Z,58.01
2022-10-01T01:29:45.462Z,57.52
2022-10-01T01:30:45.497Z,57.69
2022-10-01T01:31:45.430Z,57.04
2022-10-01T01:32:45.432Z,58.81
2022-10-01T01:33:45.426Z,57.69
2022-10-01T01:34:45.450Z,57.36
2022-10-01T01:35:45.423Z,57.04
2022-10-01T01:36:45.415Z,57.36
2022-10-01T01:37:45.435Z,56.72
2022-10-01T01:38:45.416Z,57.04
2022-10-01T01:39:45.395Z,58.49
2022-10-01T01:40:45.434Z,56.56
2022-10-01T01:41:45.378Z,56.72
2022-10-01T01:42:45.384Z,57.85
2022-10-01T01:43:45.438Z,57.69
2022-10-01T01:44:45.367Z,57.36
2022-10-01T01:45:45.363Z,57.04
2022-10-01T01:46:45.374Z,57.20
2022-10-01T01:47:45.331Z,57.20
2022-10-01T01:48:45.338Z,57.20
2022-10-01T01:49:45.372Z,57.04
2022-10-01T01:50:45.320Z,57.52
2022-10-01T01:51:45.331Z,57.69
2022-10-01T01:52:45.318Z,57.52
2022-10-01T01:53:45.308Z,57.69
2022-10-01T01:54:45.307Z,57.69
2022-10-01T01:55:45.303Z,57.69
2022-10-01T01:56:45.294Z,57.69
2022-10-01T01:57:45.290Z,57.52
2022-10-01T01:58:45.322Z,59.94
2022-10-01T01:59:45.266Z,57.04
2022-10-01T02:00:45.271Z,56.72
2022-10-01T02:01:45.388Z,56.88
2022-10-01T02:02:45.291Z,56.88
2022-10-01T02:03:45.264Z,56.88
2022-10-01T02:04:45.290Z,57.36
2022-10-01T02:05:45.237Z,56.88
2022-10-01T02:06:45.228Z,56.88
2022-10-01T02:07:45.257Z,57.52
2022-10-01T02:08:45.237Z,55.75
2022-10-01T02:09:45.213Z,56.72
2022-10-01T02:10:45.261Z,57.52
2022-10-01T02:11:45.193Z,57.04
2022-10-01T02:12:45.192Z,57.52
2022-10-01T02:13:45.239Z,57.36
2022-10-01T02:14:45.186Z,57.36
2022-10-01T02:15:46.199Z,58.01
2022-10-01T02:16:45.212Z,57.52
2022-10-01T02:17:45.162Z,57.36
2022-10-01T02:18:45.165Z,56.88
2022-10-01T02:19:45.201Z,57.20
2022-10-01T02:20:45.147Z,57.36
2022-10-01T02:21:45.129Z,57.85
2022-10-01T02:22:45.176Z,58.01
2022-10-01T02:23:45.128Z,56.24
2022-10-01T02:24:45.116Z,57.20
2022-10-01T02:25:45.145Z,57.36
2022-10-01T02:26:45.096Z,56.88
2022-10-01T02:27:45.156Z,57.36
2022-10-01T02:28:45.103Z,57.69
2022-10-01T02:29:45.108Z,57.69
2022-10-01T02:30:45.167Z,57.69
2022-10-01T02:31:45.084Z,57.36
2022-10-01T02:32:45.072Z,56.88
2022-10-01T02:33:45.065Z,57.20
2022-10-01T02:34:45.196Z,57.20
2022-10-01T02:35:45.216Z,57.04
2022-10-01T02:36:45.054Z,57.20
2022-10-01T02:37:45.035Z,57.52
2022-10-01T02:38:45.094Z,55.59
2022-10-01T02:39:45.019Z,57.36
2022-10-01T02:40:45.089Z,57.36
2022-10-01T02:41:45.070Z,57.36
2022-10-01T02:42:45.001Z,57.85
2022-10-01T02:43:44.986Z,55.91
2022-10-01T02:44:45.020Z,57.04
2022-10-01T02:45:46.043Z,57.36
2022-10-01T02:46:44.974Z,56.72
2022-10-01T02:47:45.001Z,55.91
2022-10-01T02:48:44.962Z,57.85
2022-10-01T02:49:45.038Z,56.40
2022-10-01T02:50:45.022Z,54.95
2022-10-01T02:51:44.954Z,57.85
2022-10-01T02:52:44.931Z,53.82
2022-10-01T02:53:44.924Z,53.33
2022-10-01T02:54:44.938Z,53.50
2022-10-01T02:55:44.915Z,53.50
2022-10-01T02:56:48.869Z,53.33
2022-10-01T02:57:45.927Z,54.30
2022-10-01T02:58:44.888Z,55.27
2022-10-01T02:59:44.900Z,54.79
2022-10-01T03:00:44.926Z,53.50
2022-10-01T03:01:44.969Z,53.50
2022-10-01T03:02:44.909Z,55.11
2022-10-01T03:03:44.902Z,54.14
2022-10-01T03:04:44.928Z,53.82
2022-10-01T03:05:44.855Z,54.14
2022-10-01T03:06:44.848Z,53.66
2022-10-01T03:07:44.918Z,54.62
2022-10-01T03:08:44.834Z,53.98
2022-10-01T03:09:44.827Z,54.30
2022-10-01T03:10:46.862Z,55.43
2022-10-01T03:11:45.810Z,54.46
2022-10-01T03:12:44.818Z,58.97
2022-10-01T03:13:44.822Z,53.98
2022-10-01T03:14:44.799Z,54.62
2022-10-01T03:15:44.816Z,54.95
2022-10-01T03:16:44.862Z,55.27
2022-10-01T03:17:44.783Z,54.30
2022-10-01T03:18:44.779Z,53.98
2022-10-01T03:19:44.811Z,54.46
2022-10-01T03:20:44.775Z,55.43
2022-10-01T03:21:44.764Z,55.43
2022-10-01T03:22:44.751Z,54.79
2022-10-01T03:23:44.778Z,54.95
2022-10-01T03:24:45.520Z,53.82
2022-10-01T03:25:44.739Z,54.95
2022-10-01T03:26:44.730Z,54.46
2022-10-01T03:27:44.763Z,54.79
2022-10-01T03:28:44.826Z,55.91
2022-10-01T03:29:44.715Z,54.14
2022-10-01T03:30:44.798Z,54.95
2022-10-01T03:31:44.760Z,54.30
2022-10-01T03:32:44.714Z,54.62
2022-10-01T03:33:44.702Z,56.40
2022-10-01T03:34:44.694Z,57.52
2022-10-01T03:35:44.710Z,54.46
2022-10-01T03:36:45.682Z,55.11
2022-10-01T03:37:44.674Z,56.24
2022-10-01T03:38:44.701Z,56.40
2022-10-01T03:39:44.673Z,55.59
2022-10-01T03:40:44.666Z,56.07
2022-10-01T03:41:44.644Z,58.17
2022-10-01T03:42:44.632Z,58.01
2022-10-01T03:43:44.663Z,56.07
2022-10-01T03:44:44.629Z,55.75
2022-10-01T03:45:44.693Z,52.69
2022-10-01T03:46:44.684Z,54.62
2022-10-01T03:47:44.604Z,55.75
2022-10-01T03:48:44.606Z,55.91
2022-10-01T03:49:44.618Z,57.04
2022-10-01T03:50:44.597Z,56.72
2022-10-01T03:51:44.575Z,55.59
2022-10-01T03:52:44.634Z,54.14
2022-10-01T03:53:44.638Z,57.52
2022-10-01T03:54:44.578Z,54.79
2022-10-01T03:55:44.553Z,54.30
2022-10-01T03:56:44.585Z,54.62
2022-10-01T03:57:44.665Z,54.30
2022-10-01T03:58:44.559Z,56.88
2022-10-01T03:59:44.591Z,55.11
2022-10-01T04:00:44.557Z,53.50
2022-10-01T04:01:44.549Z,53.98
2022-10-01T04:02:44.661Z,54.95
2022-10-01T04:03:44.511Z,54.46
2022-10-01T04:04:44.512Z,55.91
2022-10-01T04:05:44.504Z,55.59
2022-10-01T04:06:44.531Z,56.07
2022-10-01T04:07:44.487Z,58.01
2022-10-01T04:08:44.476Z,57.04
2022-10-01T04:09:44.518Z,56.72
2022-10-01T04:10:44.463Z,53.98
2022-10-01T04:11:44.466Z,60.26
2022-10-01T04:12:52.853Z,57.04
2022-10-01T04:13:44.442Z,64.94
2022-10-01T04:14:44.469Z,56.40
2022-10-01T04:15:45.472Z,54.46
2022-10-01T04:16:44.422Z,56.07
2022-10-01T04:17:46.114Z,57.20
2022-10-01T04:18:45.452Z,59.78
2022-10-01T04:19:44.421Z,59.46
2022-10-01T04:20:44.423Z,55.43
2022-10-01T04:21:44.393Z,55.43
2022-10-01T04:22:44.420Z,58.17
2022-10-01T04:23:44.413Z,57.04
2022-10-01T04:24:44.395Z,57.36
2022-10-01T04:25:44.385Z,58.49
2022-10-01T04:26:44.375Z,58.81
2022-10-01T04:27:44.461Z,61.55
2022-10-01T04:28:44.393Z,58.81
2022-10-01T04:29:44.357Z,58.01
2022-10-01T04:30:44.369Z,57.85
2022-10-01T04:31:44.376Z,57.36
2022-10-01T04:32:44.338Z,57.20
2022-10-01T04:33:44.324Z,57.85
2022-10-01T04:34:44.302Z,62.04
2022-10-01T04:35:44.334Z,57.20
2022-10-01T04:36:44.301Z,61.07
2022-10-01T04:37:44.307Z,59.14
2022-10-01T04:38:44.277Z,57.36
2022-10-01T04:39:44.273Z,57.69
2022-10-01T04:40:44.274Z,58.17
2022-10-01T04:41:44.298Z,62.52
2022-10-01T04:42:44.257Z,57.69
2022-10-01T04:43:44.255Z,58.81
2022-10-01T04:44:44.247Z,59.46
2022-10-01T04:45:44.314Z,58.33
2022-10-01T04:46:44.319Z,59.14
2022-10-01T04:47:44.241Z,58.49
2022-10-01T04:48:44.223Z,58.97
2022-10-01T04:49:44.249Z,57.36
2022-10-01T04:50:44.209Z,57.85
2022-10-01T04:51:44.225Z,57.36
2022-10-01T04:52:44.226Z,57.69
2022-10-01T04:53:44.206Z,58.01
2022-10-01T04:54:44.213Z,57.69
2022-10-01T04:55:44.193Z,62.04
2022-10-01T04:56:44.204Z,55.59
2022-10-01T04:57:44.176Z,57.36
2022-10-01T04:58:44.165Z,58.01
2022-10-01T04:59:44.160Z,59.94
2022-10-01T05:00:44.211Z,55.75
2022-10-01T05:01:44.267Z,56.88
2022-10-01T05:02:44.149Z,60.75
2022-10-01T05:03:44.133Z,57.20
2022-10-01T05:04:44.124Z,56.40
2022-10-01T05:05:44.128Z,56.88
2022-10-01T05:06:44.125Z,59.14
2022-10-01T05:07:44.117Z,56.40
2022-10-01T05:08:44.098Z,63.97
2022-10-01T05:09:44.113Z,61.39
2022-10-01T05:10:44.085Z,55.59
2022-10-01T05:11:44.084Z,56.40
2022-10-01T05:12:44.113Z,64.13
2022-10-01T05:13:44.080Z,55.75
2022-10-01T05:14:44.057Z,57.36
2022-10-01T05:15:44.073Z,57.20
2022-10-01T05:16:44.133Z,58.65
2022-10-01T05:17:44.052Z,56.24
2022-10-01T05:18:44.049Z,55.91
2022-10-01T05:19:44.057Z,61.87
2022-10-01T05:20:44.032Z,56.88
2022-10-01T05:21:44.033Z,56.07
2022-10-01T05:22:44.056Z,56.40
2022-10-01T05:23:44.019Z,56.88
2022-10-01T05:24:44.013Z,56.07
2022-10-01T05:25:43.992Z,57.69
2022-10-01T05:26:43.996Z,58.97
2022-10-01T05:27:44.034Z,62.52
2022-10-01T05:28:44.003Z,58.49
2022-10-01T05:29:43.967Z,62.04
2022-10-01T05:30:43.978Z,59.94
2022-10-01T05:31:44.027Z,60.10
2022-10-01T05:32:43.957Z,62.52
2022-10-01T05:33:43.946Z,65.10
2022-10-01T05:34:43.951Z,58.81
2022-10-01T05:35:43.952Z,57.20
2022-10-01T05:36:44.024Z,63.49
2022-10-01T05:37:43.931Z,62.04
2022-10-01T05:38:43.931Z,59.46
2022-10-01T05:39:43.938Z,62.68
2022-10-01T05:40:44.014Z,58.49
2022-10-01T05:41:43.924Z,57.52
2022-10-01T05:42:43.923Z,62.20
2022-10-01T05:43:43.893Z,64.94
2022-10-01T05:44:44.108Z,57.52
2022-10-01T05:45:43.918Z,64.61
2022-10-01T05:46:43.875Z,61.55
2022-10-01T05:47:43.875Z,62.36
2022-10-01T05:48:44.014Z,66.06
2022-10-01T05:49:43.866Z,67.03
2022-10-01T05:50:43.853Z,66.87
2022-10-01T05:51:43.870Z,60.42
2022-10-01T05:52:43.853Z,55.43
2022-10-01T05:53:47.095Z,58.01
2022-10-01T05:54:44.878Z,65.58
2022-10-01T05:55:43.834Z,59.14
2022-10-01T05:56:43.874Z,59.46
2022-10-01T05:57:43.823Z,63.00
2022-10-01T05:58:43.805Z,58.97
2022-10-01T05:59:43.822Z,59.62
2022-10-01T06:00:43.822Z,64.94
2022-10-01T06:01:43.824Z,60.10
2022-10-01T06:02:43.886Z,67.84
2022-10-01T06:03:43.803Z,61.87
2022-10-01T06:04:43.781Z,61.07
2022-10-01T06:05:43.826Z,58.65
2022-10-01T06:06:43.802Z,66.87
2022-10-01T06:07:43.770Z,64.61
2022-10-01T06:08:43.753Z,60.91
2022-10-01T06:09:43.843Z,58.01
2022-10-01T06:10:43.729Z,67.68
2022-10-01T06:11:43.755Z,62.84
2022-10-01T06:12:43.725Z,60.42
2022-10-01T06:13:43.755Z,62.04
2022-10-01T06:14:43.721Z,62.52
2022-10-01T06:15:43.725Z,68.00
2022-10-01T06:16:43.771Z,61.71
2022-10-01T06:17:43.703Z,65.58
2022-10-01T06:18:43.734Z,70.74
2022-10-01T06:19:43.698Z,59.62
2022-10-01T06:20:43.678Z,59.62
2022-10-01T06:21:43.670Z,67.84
2022-10-01T06:22:43.677Z,69.13
2022-10-01T06:23:43.679Z,70.09
2022-10-01T06:24:43.659Z,60.10
2022-10-01T06:25:43.662Z,68.16
2022-10-01T06:26:43.650Z,61.55
2022-10-01T06:27:43.672Z,67.35
2022-10-01T06:28:43.633Z,59.30
2022-10-01T06:29:43.629Z,67.68
2022-10-01T06:30:43.672Z,60.59
2022-10-01T06:31:43.710Z,70.74
2022-10-01T06:32:43.613Z,71.22
2022-10-01T06:33:43.622Z,57.85
2022-10-01T06:34:43.661Z,63.16
2022-10-01T06:35:43.602Z,61.23
2022-10-01T06:36:43.594Z,71.22
2022-10-01T06:37:43.638Z,64.94
2022-10-01T06:38:43.660Z,63.65
2022-10-01T06:39:43.691Z,59.62
2022-10-01T06:40:43.738Z,65.74
2022-10-01T06:41:43.562Z,62.04
2022-10-01T06:42:44.575Z,67.03
2022-10-01T06:43:44.092Z,60.10
2022-10-01T06:44:43.542Z,63.81
2022-10-01T06:45:43.635Z,60.42
2022-10-01T06:46:43.629Z,59.94
2022-10-01T06:47:43.529Z,65.42
2022-10-01T06:48:43.526Z,69.13
2022-10-01T06:49:47.329Z,64.45
2022-10-01T06:50:44.527Z,70.58
2022-10-01T06:51:43.517Z,62.04
2022-10-01T06:52:43.504Z,63.81
2022-10-01T06:53:43.496Z,66.71
2022-10-01T06:54:43.536Z,76.22
2022-10-01T06:55:43.509Z,67.51
2022-10-01T06:56:43.481Z,64.78
2022-10-01T06:57:43.468Z,67.03
2022-10-01T06:58:44.121Z,70.25
2022-10-01T06:59:43.459Z,70.74
2022-10-01T07:00:43.490Z,67.51
2022-10-01T07:01:43.544Z,70.25
2022-10-01T07:02:43.511Z,65.10
2022-10-01T07:03:43.462Z,60.59
2022-10-01T07:04:43.433Z,60.59
2022-10-01T07:05:43.479Z,60.42
2022-10-01T07:06:43.423Z,64.29
2022-10-01T07:07:43.442Z,66.87
2022-10-01T07:08:43.404Z,60.10
2022-10-01T07:09:43.423Z,59.94
2022-10-01T07:10:43.427Z,65.90
2022-10-01T07:11:43.401Z,69.77
2022-10-01T07:12:43.393Z,71.22
2022-10-01T07:13:43.395Z,59.94
2022-10-01T07:14:43.370Z,67.68
2022-10-01T07:15:43.404Z,65.74
2022-10-01T07:16:43.391Z,70.09
2022-10-01T07:17:43.386Z,68.00
2022-10-01T07:18:43.443Z,64.94
2022-10-01T07:19:43.337Z,64.61
2022-10-01T07:20:43.341Z,68.64
2022-10-01T07:21:43.410Z,61.87
2022-10-01T07:22:43.326Z,62.20
2022-10-01T07:23:43.363Z,68.00
2022-10-01T07:24:43.324Z,70.74
2022-10-01T07:25:43.333Z,66.39
2022-10-01T07:26:43.413Z,67.68
2022-10-01T07:27:43.501Z,67.84
2022-10-01T07:28:43.294Z,74.12
2022-10-01T07:29:43.290Z,67.51
2022-10-01T07:30:43.309Z,62.04
2022-10-01T07:31:43.341Z,59.46
2022-10-01T07:32:43.261Z,64.61
2022-10-01T07:33:43.252Z,68.96
2022-10-01T07:34:43.285Z,70.90
2022-10-01T07:35:43.242Z,68.64
2022-10-01T07:36:43.240Z,71.70
2022-10-01T07:37:43.261Z,62.84
2022-10-01T07:38:43.269Z,66.87
2022-10-01T07:39:43.249Z,65.58
2022-10-01T07:40:43.228Z,67.51
2022-10-01T07:41:43.273Z,64.13
2022-10-01T07:42:43.225Z,68.16
2022-10-01T07:43:43.210Z,68.16
2022-10-01T07:44:43.209Z,66.23
2022-10-01T07:45:43.244Z,68.64
2022-10-01T07:46:43.205Z,61.71
2022-10-01T07:47:43.185Z,69.29
2022-10-01T07:48:43.180Z,71.22
2022-10-01T07:49:43.180Z,68.96
2022-10-01T07:50:43.167Z,67.51
2022-10-01T07:51:43.160Z,72.19
2022-10-01T07:52:43.146Z,67.35
2022-10-01T07:53:43.157Z,70.25
2022-10-01T07:54:43.143Z,70.74
2022-10-01T07:55:43.137Z,71.22
2022-10-01T07:56:43.113Z,66.06
2022-10-01T07:57:43.133Z,65.74
2022-10-01T07:58:43.130Z,65.58
2022-10-01T07:59:43.128Z,64.94
2022-10-01T08:00:43.102Z,61.39
2022-10-01T08:01:43.184Z,60.91
2022-10-01T08:02:43.241Z,66.39
2022-10-01T08:03:43.098Z,57.52
2022-10-01T08:04:43.074Z,61.87
2022-10-01T08:05:43.082Z,67.84
2022-10-01T08:06:43.066Z,67.84
2022-10-01T08:07:43.082Z,64.61
2022-10-01T08:08:43.052Z,72.83
2022-10-01T08:09:43.052Z,66.55
2022-10-01T08:10:43.061Z,67.68
2022-10-01T08:11:43.044Z,65.10
2022-10-01T08:12:43.059Z,66.87
2022-10-01T08:13:43.059Z,66.39
2022-10-01T08:14:43.029Z,64.29
2022-10-01T08:15:43.014Z,68.48
2022-10-01T08:16:43.084Z,66.55
2022-10-01T08:17:43.213Z,62.68
2022-10-01T08:18:43.013Z,66.23
2022-10-01T08:19:43.019Z,71.54
2022-10-01T08:20:43.029Z,70.25
2022-10-01T08:21:42.971Z,67.68
2022-10-01T08:22:42.988Z,64.78
2022-10-01T08:23:42.970Z,61.87
2022-10-01T08:24:42.975Z,70.74
2022-10-01T08:25:43.001Z,67.68
2022-10-01T08:26:42.941Z,67.84
2022-10-01T08:27:42.949Z,66.55
2022-10-01T08:28:42.944Z,68.16
2022-10-01T08:29:42.973Z,68.32
2022-10-01T08:30:43.581Z,67.51
2022-10-01T08:31:42.940Z,71.06
2022-10-01T08:32:42.902Z,68.00
2022-10-01T08:33:42.953Z,69.45
2022-10-01T08:34:42.892Z,63.16
2022-10-01T08:35:42.904Z,68.96
2022-10-01T08:36:42.900Z,62.36
2022-10-01T08:37:42.878Z,67.19
2022-10-01T08:38:42.884Z,63.00
2022-10-01T08:39:42.917Z,67.68
2022-10-01T08:40:42.875Z,72.51
2022-10-01T08:41:42.863Z,73.64
2022-10-01T08:42:42.902Z,67.84
2022-10-01T08:43:42.859Z,62.52
2022-10-01T08:44:42.852Z,62.68
2022-10-01T08:45:42.886Z,68.48
2022-10-01T08:46:42.829Z,67.84
2022-10-01T08:47:42.822Z,66.87
2022-10-01T08:48:42.836Z,61.87
2022-10-01T08:49:42.804Z,69.77
2022-10-01T08:50:42.804Z,66.23
2022-10-01T08:51:42.829Z,69.45
2022-10-01T08:52:43.850Z,70.74
2022-10-01T08:53:42.779Z,70.90
2022-10-01T08:54:42.770Z,70.90
2022-10-01T08:55:42.779Z,71.38
2022-10-01T08:56:42.774Z,70.25
2022-10-01T08:57:42.790Z,70.09
2022-10-01T08:58:42.761Z,68.48
2022-10-01T08:59:42.758Z,61.55
2022-10-01T09:00:42.814Z,66.39
2022-10-01T09:01:42.777Z,66.87
2022-10-01T09:02:42.726Z,66.87
2022-10-01T09:03:42.851Z,68.48
2022-10-01T09:04:42.824Z,67.51
2022-10-01T09:05:42.711Z,69.61
2022-10-01T09:06:42.720Z,66.06
2022-10-01T09:07:42.694Z,72.19
2022-10-01T09:08:42.686Z,68.48
2022-10-01T09:09:42.682Z,73.32
2022-10-01T09:10:42.715Z,67.68
2022-10-01T09:11:43.043Z,69.45
2022-10-01T09:12:42.654Z,68.48
2022-10-01T09:13:43.380Z,66.71
2022-10-01T09:14:42.651Z,72.19
2022-10-01T09:15:42.646Z,65.90
2022-10-01T09:16:42.738Z,71.06
2022-10-01T09:17:42.644Z,73.64
2022-10-01T09:18:42.635Z,70.09
2022-10-01T09:19:46.054Z,72.83
2022-10-01T09:20:44.621Z,68.00
2022-10-01T09:21:42.666Z,71.22
2022-10-01T09:22:42.655Z,70.90
2022-10-01T09:23:42.587Z,68.48
2022-10-01T09:24:42.608Z,72.19
2022-10-01T09:25:42.560Z,64.61
2022-10-01T09:26:42.592Z,61.71
2022-10-01T09:27:42.551Z,70.42
2022-10-01T09:28:42.554Z,65.58
2022-10-01T09:29:42.548Z,74.60
2022-10-01T09:30:42.566Z,70.74
2022-10-01T09:31:42.657Z,69.61
2022-10-01T09:32:43.180Z,66.39
2022-10-01T09:33:42.516Z,68.16
2022-10-01T09:34:42.514Z,69.61
2022-10-01T09:35:42.505Z,70.42
2022-10-01T09:36:42.602Z,63.65
2022-10-01T09:37:42.506Z,72.99
2022-10-01T09:38:42.488Z,72.19
2022-10-01T09:39:42.476Z,68.00
2022-10-01T09:40:42.465Z,61.55
2022-10-01T09:41:42.447Z,59.46
2022-10-01T09:42:43.510Z,70.42
2022-10-01T09:43:42.461Z,70.42
2022-10-01T09:44:42.439Z,66.06
2022-10-01T09:45:42.486Z,70.42
2022-10-01T09:46:42.475Z,68.96
2022-10-01T09:47:42.538Z,63.81
2022-10-01T09:48:42.415Z,68.64
2022-10-01T09:49:42.397Z,68.00
2022-10-01T09:50:42.392Z,63.00
2022-10-01T09:51:42.689Z,64.94
2022-10-01T09:52:42.406Z,69.29
2022-10-01T09:53:42.398Z,63.16
2022-10-01T09:54:42.393Z,73.32
2022-10-01T09:55:42.369Z,67.19
2022-10-01T09:56:42.466Z,69.13
2022-10-01T09:57:42.374Z,68.00
2022-10-01T09:58:43.100Z,65.26
2022-10-01T09:59:42.340Z,68.48
2022-10-01T10:00:42.365Z,69.29
2022-10-01T10:01:42.368Z,68.32
2022-10-01T10:02:48.205Z,65.90
2022-10-01T10:03:44.316Z,67.19
2022-10-01T10:04:42.292Z,69.45
2022-10-01T10:05:42.295Z,71.38
2022-10-01T10:06:42.372Z,65.10
2022-10-01T10:07:42.343Z,66.71
2022-10-01T10:08:42.282Z,68.00
2022-10-01T10:09:42.275Z,70.25
2022-10-01T10:10:43.128Z,62.68
2022-10-01T10:11:42.266Z,67.03
2022-10-01T10:12:42.267Z,70.42
2022-10-01T10:13:42.263Z,63.16
2022-10-01T10:14:42.226Z,69.29
2022-10-01T10:15:42.274Z,63.33
2022-10-01T10:16:42.282Z,66.55
2022-10-01T10:17:42.251Z,62.68
2022-10-01T10:18:42.236Z,67.03
2022-10-01T10:19:42.209Z,67.35
2022-10-01T10:20:42.198Z,69.29
2022-10-01T10:21:42.222Z,62.52
2022-10-01T10:22:42.190Z,69.45
2022-10-01T10:23:42.202Z,68.96
2022-10-01T10:24:42.162Z,65.90
2022-10-01T10:25:42.169Z,69.77
2022-10-01T10:26:42.162Z,71.70
2022-10-01T10:27:42.157Z,69.77
2022-10-01T10:28:44.075Z,69.93
2022-10-01T10:29:43.201Z,70.25
2022-10-01T10:30:42.180Z,72.51
2022-10-01T10:31:42.237Z,68.32
2022-10-01T10:32:42.106Z,74.60
2022-10-01T10:33:42.166Z,67.19
2022-10-01T10:34:42.118Z,70.90
2022-10-01T10:35:42.097Z,64.13
2022-10-01T10:36:42.155Z,69.13
2022-10-01T10:37:42.091Z,70.90
2022-10-01T10:38:42.059Z,73.48
2022-10-01T10:39:42.097Z,68.64
2022-10-01T10:40:42.094Z,60.91
2022-10-01T10:41:42.055Z,69.61
2022-10-01T10:42:42.066Z,71.87
2022-10-01T10:43:42.074Z,58.81
2022-10-01T10:44:42.029Z,63.16
2022-10-01T10:45:42.018Z,66.71
2022-10-01T10:46:46.004Z,69.13
2022-10-01T10:47:43.022Z,67.19
2022-10-01T10:48:41.993Z,74.44
2022-10-01T10:49:41.993Z,60.59
2022-10-01T10:50:42.002Z,60.10
2022-10-01T10:51:41.985Z,74.12
2022-10-01T10:52:45.642Z,74.12
2022-10-01T10:53:43.612Z,68.96
2022-10-01T10:54:41.953Z,73.64
2022-10-01T10:55:41.961Z,66.71
2022-10-01T10:56:41.968Z,69.61
2022-10-01T10:57:41.952Z,71.87
2022-10-01T10:58:41.927Z,71.38
2022-10-01T10:59:41.915Z,68.96
2022-10-01T11:00:41.970Z,65.90
2022-10-01T11:01:42.062Z,65.10
2022-10-01T11:02:41.944Z,72.03
2022-10-01T11:03:52.313Z,69.29
2022-10-01T11:04:41.901Z,75.09
2022-10-01T11:05:41.884Z,68.00
2022-10-01T11:06:41.881Z,66.39
2022-10-01T11:07:41.856Z,68.00
2022-10-01T11:08:42.647Z,68.48
2022-10-01T11:09:41.845Z,66.39
2022-10-01T11:10:41.843Z,71.87
2022-10-01T11:11:41.928Z,71.06
2022-10-01T11:12:41.839Z,70.42
2022-10-01T11:13:41.956Z,73.15
2022-10-01T11:14:41.825Z,71.06
2022-10-01T11:15:41.838Z,69.45
2022-10-01T11:16:41.824Z,70.25
2022-10-01T11:17:41.810Z,69.61
2022-10-01T11:18:41.799Z,65.10
2022-10-01T11:19:41.791Z,71.54
2022-10-01T11:20:41.779Z,69.45
2022-10-01T11:21:41.793Z,68.48
2022-10-01T11:22:41.889Z,66.23
2022-10-01T11:23:41.834Z,62.84
2022-10-01T11:24:41.760Z,61.71
2022-10-01T11:25:41.843Z,70.25
2022-10-01T11:26:41.774Z,70.58
2022-10-01T11:27:41.742Z,68.64
2022-10-01T11:28:41.725Z,68.64
2022-10-01T11:29:41.764Z,68.80
2022-10-01T11:30:41.724Z,67.35
2022-10-01T11:31:41.807Z,66.39
2022-10-01T11:32:41.723Z,71.06
2022-10-01T11:33:41.691Z,62.68
2022-10-01T11:34:42.695Z,69.29
2022-10-01T11:35:41.712Z,68.16
2022-10-01T11:36:41.726Z,68.16
2022-10-01T11:37:41.723Z,65.10
2022-10-01T11:38:41.658Z,67.03
2022-10-01T11:39:41.658Z,66.39
2022-10-01T11:40:41.650Z,62.52
2022-10-01T11:41:41.749Z,68.16
2022-10-01T11:42:41.693Z,65.10
2022-10-01T11:43:41.642Z,67.51
2022-10-01T11:44:41.623Z,68.00
2022-10-01T11:45:41.671Z,65.90
2022-10-01T11:46:41.784Z,70.74
2022-10-01T11:47:41.653Z,67.51
2022-10-01T11:48:41.617Z,70.09
2022-10-01T11:49:41.765Z,59.62
2022-10-01T11:50:41.582Z,63.16
2022-10-01T11:51:41.613Z,63.16
2022-10-01T11:52:41.565Z,63.49
2022-10-01T11:53:41.589Z,67.35
2022-10-01T11:54:41.582Z,62.52
2022-10-01T11:55:41.585Z,71.22
2022-10-01T11:56:41.593Z,62.04
2022-10-01T11:57:41.537Z,63.81
2022-10-01T11:58:41.626Z,67.68
2022-10-01T11:59:41.528Z,65.90
2022-10-01T12:00:41.524Z,71.06
2022-10-01T12:01:41.561Z,62.52
2022-10-01T12:02:41.547Z,66.06
2022-10-01T12:03:41.492Z,60.10
2022-10-01T12:04:41.521Z,60.10
2022-10-01T12:05:42.180Z,73.80
2022-10-01T12:06:41.871Z,70.74
2022-10-01T12:07:41.479Z,71.54
2022-10-01T12:08:41.542Z,64.29
2022-10-01T12:09:41.464Z,64.45
2022-10-01T12:10:41.495Z,70.25
2022-10-01T12:11:41.520Z,65.90
2022-10-01T12:12:41.463Z,72.67
2022-10-01T12:13:41.440Z,72.03
2022-10-01T12:14:42.780Z,66.87
2022-10-01T12:15:41.434Z,59.78
2022-10-01T12:16:41.530Z,61.87
2022-10-01T12:17:41.479Z,60.75
2022-10-01T12:18:41.599Z,67.35
2022-10-01T12:19:41.400Z,68.96
2022-10-01T12:20:41.424Z,71.87
2022-10-01T12:21:41.384Z,73.15
2022-10-01T12:22:41.424Z,71.06
2022-10-01T12:23:41.384Z,68.96
2022-10-01T12:24:41.364Z,67.19
2022-10-01T12:25:41.358Z,63.65
2022-10-01T12:26:41.363Z,69.93
2022-10-01T12:27:41.372Z,69.13
2022-10-01T12:28:41.402Z,72.35
2022-10-01T12:29:42.108Z,69.77
2022-10-01T12:30:41.325Z,67.19
2022-10-01T12:31:41.362Z,65.90
2022-10-01T12:32:41.355Z,62.36
2022-10-01T12:33:42.084Z,59.62
2022-10-01T12:34:41.298Z,71.54
2022-10-01T12:35:41.303Z,73.48
2022-10-01T12:36:41.314Z,72.51
2022-10-01T12:37:41.294Z,70.74
2022-10-01T12:38:41.304Z,71.06
2022-10-01T12:39:41.271Z,65.10
2022-10-01T12:40:42.116Z,72.19
2022-10-01T12:41:41.275Z,71.87
2022-10-01T12:42:41.267Z,67.51
2022-10-01T12:43:41.286Z,65.58
2022-10-01T12:44:41.238Z,69.45
2022-10-01T12:45:41.213Z,66.06
2022-10-01T12:46:41.390Z,68.80
2022-10-01T12:47:41.215Z,63.16
2022-10-01T12:48:41.214Z,69.93
2022-10-01T12:49:41.218Z,70.74
2022-10-01T12:50:41.183Z,69.77
2022-10-01T12:51:41.190Z,72.35
2022-10-01T12:52:41.176Z,64.61